Time;durP1;ratioP1;P1;durP2;ratioP2;P2;SDS_P1;SDS_P2;PMS_P1;PMS_P2;Temp;Humidity;BMP_temperature;BMP_pressure;BME280_temperature;BME280_humidity;BME280_pressure;Samples;Min_cycle;Max_cycle;Signal;HPM_P1;HPM_P2
2023/11/09 00:02:07;;;;;;;13.30;8.35;;;;;;;;;;6258997;28;20120;-96
2023/11/09 00:05:25;;;;;;;13.30;8.57;;;;;;;;;;6244855;28;20056;-96
2023/11/09 00:08:53;;;;;;;15.48;8.40;;;;;;;;;;6235002;28;20037;-94
2023/11/09 00:11:58;;;;;;;13.23;7.72;;;;;;;;;;6248873;28;20076;-96
2023/11/09 00:15:03;;;;;;;14.43;9.00;;;;;;;;;;6233092;28;20220;-96
2023/11/09 00:18:09;;;;;;;15.35;8.05;;;;;;;;;;6260403;28;20112;-96
2023/11/09 00:21:11;;;;;;;17.08;9.35;;;;;;;;;;6246418;28;20053;-96
2023/11/09 00:24:15;;;;;;;17.42;9.27;;;;;;;;;;6250371;28;20221;-96
2023/11/09 00:27:21;;;;;;;15.60;9.57;;;;;;;;;;6279728;28;20056;-96
2023/11/09 00:33:41;;;;;;;15.75;9.35;;;;;;;;;;6283209;28;20076;-94
2023/11/09 00:36:46;;;;;;;17.83;9.75;;;;;;;;;;6282370;28;20100;-92
2023/11/09 00:39:50;;;;;;;17.08;10.25;;;;;;;;;;6283422;28;20097;-95
2023/11/09 00:42:53;;;;;;;17.45;10.48;;;;;;;;;;6255068;28;20930;-96
2023/11/09 00:46:00;;;;;;;17.80;9.60;;;;;;;;;;6278596;28;20040;-96
2023/11/09 00:49:03;;;;;;;16.52;10.18;;;;;;;;;;6271738;28;20096;-94
2023/11/09 00:52:05;;;;;;;16.77;9.57;;;;;;;;;;6262030;28;20060;-92
2023/11/09 00:55:13;;;;;;;17.05;9.55;;;;;;;;;;6250441;28;20068;-96
2023/11/09 01:01:31;;;;;;;16.73;9.63;;;;;;;;;;7229522;22;20040;-95
2023/11/09 01:04:36;;;;;;;15.18;9.70;;;;;;;;;;6352662;28;20104;-96
2023/11/09 01:11:47;;;;;;;18.05;9.85;;;;;;;;;;6333331;28;20036;-92
2023/11/09 01:15:08;;;;;;;16.65;10.45;;;;;;;;;;6716590;22;20060;-96
2023/11/09 01:18:14;;;;;;;17.77;10.23;;;;;;;;;;6513484;22;20927;-96
2023/11/09 01:31:02;;;;;;;48.53;19.10;;;;;;;;;;6341751;28;20057;-96
2023/11/09 01:37:55;;;;;;;97.28;39.65;;;;;;;;;;6359425;28;20036;-96
2023/11/09 01:41:06;;;;;;;42.00;20.85;;;;;;;;;;6353537;28;20039;-96
2023/11/09 01:44:08;;;;;;;16.20;9.68;;;;;;;;;;6346604;27;20055;-96
2023/11/09 01:57:15;;;;;;;13.23;6.57;;;;;;;;;;6362274;27;20039;-96
2023/11/09 02:00:43;;;;;;;10.43;6.10;;;;;;;;;;6319370;27;20060;-96
2023/11/09 02:03:48;;;;;;;10.60;5.70;;;;;;;;;;6336055;28;20074;-96
2023/11/09 02:07:00;;;;;;;9.27;5.95;;;;;;;;;;6360578;28;20052;-96
2023/11/09 02:14:08;;;;;;;12.00;6.00;;;;;;;;;;6287929;28;20065;-96
2023/11/09 02:17:22;;;;;;;8.43;5.65;;;;;;;;;;6323375;27;20116;-96
2023/11/09 02:20:31;;;;;;;8.32;5.65;;;;;;;;;;6364813;27;20063;-95
2023/11/09 02:27:23;;;;;;;8.98;5.50;;;;;;;;;;6348962;27;20036;-96
2023/11/09 02:34:09;;;;;;;9.20;4.85;;;;;;;;;;6365273;27;20045;-96
2023/11/09 02:37:12;;;;;;;9.45;5.18;;;;;;;;;;6354013;27;20054;-96
2023/11/09 02:40:14;;;;;;;9.17;5.40;;;;;;;;;;6371506;27;20066;-96
2023/11/09 02:46:37;;;;;;;6.55;4.30;;;;;;;;;;6357400;27;20047;-95
2023/11/09 02:49:59;;;;;;;8.75;5.43;;;;;;;;;;6347247;27;20094;-96
2023/11/09 02:53:02;;;;;;;7.20;4.40;;;;;;;;;;6350195;27;20123;-97
2023/11/09 03:03:05;;;;;;;8.18;3.80;;;;;;;;;;6288976;28;20052;-96
2023/11/09 03:09:38;;;;;;;4.90;3.30;;;;;;;;;;6292305;28;20036;-96
2023/11/09 03:12:41;;;;;;;4.80;3.00;;;;;;;;;;6274960;28;20041;-96
2023/11/09 03:25:41;;;;;;;4.93;2.97;;;;;;;;;;6261840;28;20071;-95
2023/11/09 03:28:45;;;;;;;5.70;3.65;;;;;;;;;;6284428;28;20048;-96
2023/11/09 03:31:54;;;;;;;4.05;2.92;;;;;;;;;;6289592;28;20061;-96
2023/11/09 03:35:01;;;;;;;5.65;3.25;;;;;;;;;;6353591;27;20127;-95
2023/11/09 03:38:04;;;;;;;5.57;2.95;;;;;;;;;;6365534;27;20040;-96
2023/11/09 03:41:16;;;;;;;4.25;2.90;;;;;;;;;;6379408;27;20047;-96
2023/11/09 03:44:19;;;;;;;5.80;3.38;;;;;;;;;;6350816;27;20067;-96
2023/11/09 03:50:50;;;;;;;4.22;2.95;;;;;;;;;;6338227;27;20091;-96
2023/11/09 03:53:53;;;;;;;4.63;2.83;;;;;;;;;;6363088;27;20111;-96
2023/11/09 03:57:05;;;;;;;5.38;2.80;;;;;;;;;;6313772;28;20291;-96
2023/11/09 04:03:29;;;;;;;4.47;2.78;;;;;;;;;;6369773;27;20055;-96
2023/11/09 04:06:34;;;;;;;4.28;3.22;;;;;;;;;;6348844;27;20402;-95
2023/11/09 04:09:38;;;;;;;4.78;2.70;;;;;;;;;;6368089;27;20058;-96
2023/11/09 04:12:40;;;;;;;6.60;3.38;;;;;;;;;;6348676;27;20051;-96
2023/11/09 04:15:42;;;;;;;4.57;2.80;;;;;;;;;;6335976;27;20125;-96
2023/11/09 04:22:04;;;;;;;4.32;2.90;;;;;;;;;;6313201;27;20042;-96
2023/11/09 04:28:23;;;;;;;5.93;2.80;;;;;;;;;;6353993;27;20112;-96
2023/11/09 04:31:26;;;;;;;5.55;2.50;;;;;;;;;;6369396;27;20055;-96
2023/11/09 04:34:36;;;;;;;4.85;2.58;;;;;;;;;;6368525;27;20088;-96
2023/11/09 04:37:49;;;;;;;7.00;2.97;;;;;;;;;;6374515;27;20051;-96
2023/11/09 04:40:55;;;;;;;3.88;2.40;;;;;;;;;;6370303;27;20100;-96
2023/11/09 04:43:58;;;;;;;3.40;2.42;;;;;;;;;;6370440;27;20224;-96
2023/11/09 04:47:08;;;;;;;3.73;2.90;;;;;;;;;;6341089;28;20056;-97
2023/11/09 04:50:15;;;;;;;4.38;2.80;;;;;;;;;;6327445;28;20466;-96
2023/11/09 04:53:30;;;;;;;5.43;2.50;;;;;;;;;;6362231;27;20086;-96
2023/11/09 04:56:39;;;;;;;;;;;;;;;;;;6368740;27;20097;-96
2023/11/09 05:09:47;;;;;;;3.55;2.50;;;;;;;;;;6355144;27;20055;-96
2023/11/09 05:12:49;;;;;;;5.72;2.67;;;;;;;;;;6306802;27;20060;-96
2023/11/09 05:15:55;;;;;;;4.63;2.28;;;;;;;;;;6352720;27;20051;-96
2023/11/09 05:18:58;;;;;;;5.35;2.63;;;;;;;;;;6365014;27;20252;-96
2023/11/09 05:22:19;;;;;;;4.30;2.40;;;;;;;;;;6340783;27;20123;-96
2023/11/09 05:25:21;;;;;;;5.35;3.30;;;;;;;;;;6355766;27;20043;-96
2023/11/09 05:28:24;;;;;;;7.78;3.35;;;;;;;;;;6319561;28;20113;-96
2023/11/09 05:31:26;;;;;;;7.57;3.80;;;;;;;;;;6350324;27;20250;-96
2023/11/09 05:34:29;;;;;;;7.57;3.55;;;;;;;;;;6355916;27;20068;-96
2023/11/09 05:37:33;;;;;;;;;;;;;;;;;;6350435;28;20232;-96
2023/11/09 05:40:35;;;;;;;6.95;3.90;;;;;;;;;;6367118;27;19938;-96
2023/11/09 05:43:38;;;;;;;6.25;3.70;;;;;;;;;;6366314;27;20051;-96
2023/11/09 05:46:40;;;;;;;9.13;4.07;;;;;;;;;;6345414;28;20370;-95
2023/11/09 05:49:42;;;;;;;6.45;3.75;;;;;;;;;;6364623;27;21604;-96
2023/11/09 05:56:07;;;;;;;7.53;4.28;;;;;;;;;;6333519;28;20118;-95
2023/11/09 05:59:15;;;;;;;6.43;4.32;;;;;;;;;;6349310;28;20039;-96
2023/11/09 06:02:17;;;;;;;7.22;4.28;;;;;;;;;;6332661;28;20133;-96
2023/11/09 06:05:26;;;;;;;9.30;4.60;;;;;;;;;;6349573;28;20072;-96
2023/11/09 06:08:30;;;;;;;6.45;3.88;;;;;;;;;;6366718;28;20044;-96
2023/11/09 06:14:58;;;;;;;8.10;4.10;;;;;;;;;;6328280;28;20056;-96
2023/11/09 06:18:01;;;;;;;7.00;3.53;;;;;;;;;;6327882;28;20110;-96
2023/11/09 06:21:20;;;;;;;6.47;3.75;;;;;;;;;;6333358;28;20354;-96
2023/11/09 06:24:25;;;;;;;6.47;3.25;;;;;;;;;;6324391;28;20040;-96
2023/11/09 06:27:29;;;;;;;9.20;3.90;;;;;;;;;;6362651;28;20047;-96
2023/11/09 06:30:31;;;;;;;9.65;4.15;;;;;;;;;;6357727;27;20066;-95
2023/11/09 06:33:35;;;;;;;9.38;4.10;;;;;;;;;;6370410;27;20051;-93
2023/11/09 06:36:37;;;;;;;6.95;4.00;;;;;;;;;;6351237;28;20340;-96
2023/11/09 06:39:46;;;;;;;7.05;4.13;;;;;;;;;;6366880;27;20047;-96
2023/11/09 06:42:50;;;;;;;10.32;4.57;;;;;;;;;;6373410;27;20055;-96
2023/11/09 06:45:53;;;;;;;8.50;4.85;;;;;;;;;;6371532;27;20380;-96
2023/11/09 06:48:57;;;;;;;10.48;5.43;;;;;;;;;;6313029;28;20108;-96
2023/11/09 06:51:59;;;;;;;;;;;;;;;;;;6322730;27;20096;-96
2023/11/09 06:55:03;;;;;;;9.43;5.03;;;;;;;;;;6371679;27;19939;-96
2023/11/09 06:58:05;;;;;;;8.27;5.10;;;;;;;;;;6366441;27;20047;-96
2023/11/09 07:04:28;;;;;;;8.90;4.78;;;;;;;;;;6368413;27;20058;-96
2023/11/09 07:07:38;;;;;;;;;;;;;;;;;;6333748;27;20051;-96
2023/11/09 07:21:43;;;;;;;8.82;4.53;;;;;;;;;;6355269;27;20134;-96
2023/11/09 07:24:49;;;;;;;7.07;3.80;;;;;;;;;;6315451;27;20047;-96
2023/11/09 07:27:58;;;;;;;6.97;4.00;;;;;;;;;;6344571;27;20209;-96
2023/11/09 07:37:34;;;;;;;4.65;3.30;;;;;;;;;;6345735;27;20050;-96
2023/11/09 07:48:04;;;;;;;7.03;3.75;;;;;;;;;;6295181;27;20074;-96
2023/11/09 07:51:27;;;;;;;4.93;2.97;;;;;;;;;;6311194;28;20041;-96
2023/11/09 07:54:31;;;;;;;9.53;3.43;;;;;;;;;;6361205;27;20058;-96
2023/11/09 07:57:39;;;;;;;6.30;3.50;;;;;;;;;;6349222;27;20051;-94
2023/11/09 08:07:28;;;;;;;7.78;3.13;;;;;;;;;;6257734;28;20086;-96
2023/11/09 08:10:35;;;;;;;5.85;3.42;;;;;;;;;;6327516;27;20055;-96
2023/11/09 08:13:40;;;;;;;7.25;3.60;;;;;;;;;;6329897;27;20063;-95
2023/11/09 08:20:09;;;;;;;8.00;3.30;;;;;;;;;;6359796;27;20098;-95
2023/11/09 08:23:15;;;;;;;5.75;3.10;;;;;;;;;;6352591;27;20051;-96
2023/11/09 08:29:38;;;;;;;4.95;3.40;;;;;;;;;;6368420;27;20055;-96
2023/11/09 08:32:46;;;;;;;5.75;3.17;;;;;;;;;;6357514;27;20107;-96
2023/11/09 08:42:53;;;;;;;9.30;3.97;;;;;;;;;;6303577;28;20062;-96
2023/11/09 08:46:02;;;;;;;6.28;3.58;;;;;;;;;;6309575;28;20123;-96
2023/11/09 08:52:47;;;;;;;6.78;4.07;;;;;;;;;;6329849;27;20043;-96
2023/11/09 08:59:12;;;;;;;8.02;3.85;;;;;;;;;;6354115;27;20043;-96
2023/11/09 09:02:48;;;;;;;7.25;3.70;;;;;;;;;;6333445;28;20771;-96
2023/11/09 09:29:58;;;;;;;7.88;3.60;;;;;;;;;;6309147;28;20147;-94
2023/11/09 09:33:10;;;;;;;5.90;3.40;;;;;;;;;;6346004;28;20051;-96
2023/11/09 09:43:07;;;;;;;5.28;3.20;;;;;;;;;;6261856;28;20180;-96
2023/11/09 09:49:31;;;;;;;5.40;2.75;;;;;;;;;;6227192;28;19924;-96
2023/11/09 09:52:38;;;;;;;4.45;2.65;;;;;;;;;;6302348;28;20063;-96
2023/11/09 09:59:11;;;;;;;7.82;3.58;;;;;;;;;;6286641;28;20059;-96
2023/11/09 10:05:51;;;;;;;6.70;3.80;;;;;;;;;;6298788;28;20058;-96
2023/11/09 10:09:01;;;;;;;6.03;3.20;;;;;;;;;;6311716;28;20041;-96
2023/11/09 10:12:28;;;;;;;6.78;3.45;;;;;;;;;;6276126;28;20144;-96
2023/11/09 10:15:56;;;;;;;7.13;3.40;;;;;;;;;;6289454;28;20687;-96
2023/11/09 10:19:01;;;;;;;6.70;3.55;;;;;;;;;;6312628;28;20052;-96
2023/11/09 10:25:32;;;;;;;9.32;4.35;;;;;;;;;;6328235;28;20123;-96
2023/11/09 10:32:07;;;;;;;6.15;3.70;;;;;;;;;;6334995;27;20053;-95
2023/11/09 10:35:29;;;;;;;8.88;3.55;;;;;;;;;;6361805;27;20066;-96
2023/11/09 10:38:32;;;;;;;6.20;3.85;;;;;;;;;;6370465;27;20058;-96
2023/11/09 10:41:42;;;;;;;6.82;3.55;;;;;;;;;;6356048;27;20055;-96
2023/11/09 10:48:04;;;;;;;8.07;4.07;;;;;;;;;;6365325;27;20039;-96
2023/11/09 10:51:09;;;;;;;10.88;4.70;;;;;;;;;;6366266;27;20059;-96
2023/11/09 10:54:11;;;;;;;9.05;4.18;;;;;;;;;;6371218;27;20062;-96
2023/11/09 10:57:13;;;;;;;5.43;3.55;;;;;;;;;;6365156;27;20064;-96
2023/11/09 11:00:31;;;;;;;10.05;4.15;;;;;;;;;;6368298;27;20106;-96
2023/11/09 11:03:37;;;;;;;6.70;3.80;;;;;;;;;;6354532;27;20259;-94
2023/11/09 11:06:51;;;;;;;8.90;4.68;;;;;;;;;;6359471;27;20062;-92
2023/11/09 11:13:28;;;;;;;7.53;4.35;;;;;;;;;;6353819;27;20107;-96
2023/11/09 11:20:36;;;;;;;8.43;4.77;;;;;;;;;;6339365;27;20047;-96
2023/11/09 11:24:08;;;;;;;9.73;4.70;;;;;;;;;;6355638;27;20456;-96
2023/11/09 11:27:14;;;;;;;11.38;4.53;;;;;;;;;;6350740;27;20371;-96
2023/11/09 11:33:47;;;;;;;8.88;4.70;;;;;;;;;;6334925;27;20047;-96
2023/11/09 11:37:08;;;;;;;9.82;4.78;;;;;;;;;;6312579;27;20049;-96
2023/11/09 11:40:11;;;;;;;10.18;5.35;;;;;;;;;;6374724;27;20057;-96
2023/11/09 11:43:14;;;;;;;13.30;5.70;;;;;;;;;;6340059;27;20114;-96
2023/11/09 11:52:59;;;;;;;8.27;5.35;;;;;;;;;;6338639;27;20055;-94
2023/11/09 11:59:25;;;;;;;8.88;5.93;;;;;;;;;;6356584;27;20097;-96
2023/11/09 12:02:26;;;;;;;9.90;5.55;;;;;;;;;;6353174;27;20099;-96
2023/11/09 12:05:32;;;;;;;9.80;5.63;;;;;;;;;;6372377;27;20058;-96
2023/11/09 12:08:34;;;;;;;14.73;6.88;;;;;;;;;;6341624;27;20050;-96
2023/11/09 12:11:43;;;;;;;9.52;5.78;;;;;;;;;;6346204;27;20075;-96
2023/11/09 12:18:50;;;;;;;10.27;5.13;;;;;;;;;;6259549;28;20133;-96
2023/11/09 12:21:56;;;;;;;9.23;5.13;;;;;;;;;;6283715;28;20053;-95
2023/11/09 12:28:16;;;;;;;8.70;5.18;;;;;;;;;;6279128;28;20052;-96
2023/11/09 12:31:20;;;;;;;8.48;5.43;;;;;;;;;;6276134;28;20064;-96
2023/11/09 12:34:23;;;;;;;8.57;5.05;;;;;;;;;;6278869;28;20134;-96
2023/11/09 12:37:33;;;;;;;10.70;4.95;;;;;;;;;;6279549;28;20480;-96
2023/11/09 12:40:40;;;;;;;7.72;4.47;;;;;;;;;;6275447;28;20064;-96
2023/11/09 12:43:52;;;;;;;8.70;4.57;;;;;;;;;;6279950;28;20041;-96
2023/11/09 12:46:59;;;;;;;11.43;4.97;;;;;;;;;;6277942;28;20048;-96
2023/11/09 12:50:05;;;;;;;8.60;4.90;;;;;;;;;;6277022;28;20057;-96
2023/11/09 12:57:07;;;;;;;13.25;4.72;;;;;;;;;;6310683;27;20103;-96
2023/11/09 13:03:33;;;;;;;10.35;5.80;;;;;;;;;;6337940;28;20031;-93
2023/11/09 13:06:35;;;;;;;7.70;5.15;;;;;;;;;;6319293;28;20056;-96
2023/11/09 13:17:19;;;;;;;10.43;5.63;;;;;;;;;;6295405;28;20103;-95
2023/11/09 13:20:32;;;;;;;9.13;5.18;;;;;;;;;;6290344;28;20044;-96
2023/11/09 13:23:53;;;;;;;9.07;5.18;;;;;;;;;;6296957;28;20336;-95
2023/11/09 13:26:57;;;;;;;8.37;4.93;;;;;;;;;;6304165;28;20048;-96
2023/11/09 13:30:02;;;;;;;8.90;5.22;;;;;;;;;;6322431;28;20049;-96
2023/11/09 13:33:16;;;;;;;10.77;6.25;;;;;;;;;;6318138;28;20072;-96
2023/11/09 13:36:37;;;;;;;12.23;5.55;;;;;;;;;;6304021;28;20048;-96
2023/11/09 13:39:50;;;;;;;10.07;6.07;;;;;;;;;;6317919;28;20096;-96
2023/11/09 13:43:08;;;;;;;13.05;5.43;;;;;;;;;;6350461;27;20054;-96
2023/11/09 13:46:14;;;;;;;11.98;5.53;;;;;;;;;;6295597;28;20047;-96
2023/11/09 13:49:21;;;;;;;6.40;4.78;;;;;;;;;;6361624;27;20100;-97
2023/11/09 13:55:47;;;;;;;9.15;5.32;;;;;;;;;;6290842;28;20091;-96
2023/11/09 13:58:53;;;;;;;11.77;5.97;;;;;;;;;;6304171;28;20120;-96
2023/11/09 14:01:55;;;;;;;11.32;5.43;;;;;;;;;;6316251;28;20052;-96
2023/11/09 14:05:08;;;;;;;11.80;5.93;;;;;;;;;;6310044;28;20115;-96
2023/11/09 14:08:18;;;;;;;10.10;5.50;;;;;;;;;;6306552;28;20052;-96
2023/11/09 14:11:33;;;;;;;11.55;4.70;;;;;;;;;;6301051;28;20064;-96
2023/11/09 14:14:40;;;;;;;10.25;5.80;;;;;;;;;;6312701;28;20064;-96
2023/11/09 14:17:47;;;;;;;8.40;4.82;;;;;;;;;;6319847;28;20102;-96
2023/11/09 14:20:52;;;;;;;8.15;5.00;;;;;;;;;;6311851;28;20064;-96
2023/11/09 14:23:56;;;;;;;7.80;5.70;;;;;;;;;;6312489;28;20059;-95
2023/11/09 14:26:59;;;;;;;9.15;5.20;;;;;;;;;;6314920;28;20344;-96
2023/11/09 14:30:02;;;;;;;12.25;5.85;;;;;;;;;;6314884;28;20107;-96
2023/11/09 14:33:07;;;;;;;9.80;6.18;;;;;;;;;;6318556;28;20232;-96
2023/11/09 14:36:10;;;;;;;12.15;6.43;;;;;;;;;;6314181;28;20048;-96
2023/11/09 14:39:30;;;;;;;13.98;5.45;;;;;;;;;;6312527;28;20056;-96
2023/11/09 14:42:33;;;;;;;12.43;5.60;;;;;;;;;;6310080;28;20063;-96
2023/11/09 14:45:40;;;;;;;7.53;5.15;;;;;;;;;;6315387;28;20052;-96
2023/11/09 14:48:45;;;;;;;8.80;5.35;;;;;;;;;;6312214;28;20082;-96
2023/11/09 14:51:48;;;;;;;10.10;5.55;;;;;;;;;;6320183;28;20059;-96
2023/11/09 14:54:50;;;;;;;12.87;6.40;;;;;;;;;;6367561;28;20066;-96
2023/11/09 14:57:52;;;;;;;10.30;6.05;;;;;;;;;;6367676;27;20465;-96
2023/11/09 15:00:59;;;;;;;105.68;47.65;;;;;;;;;;6324937;27;20057;-96
2023/11/09 15:04:01;;;;;;;46.60;20.33;;;;;;;;;;6373749;27;20051;-96
2023/11/09 15:07:16;;;;;;;72.55;29.20;;;;;;;;;;6357366;27;20058;-96
2023/11/09 15:10:24;;;;;;;33.90;17.85;;;;;;;;;;6372958;27;20350;-95
2023/11/09 15:13:28;;;;;;;37.40;16.65;;;;;;;;;;6373444;27;20055;-95
2023/11/09 15:16:31;;;;;;;33.10;16.15;;;;;;;;;;6376607;27;20059;-96
2023/11/09 15:19:33;;;;;;;10.32;6.18;;;;;;;;;;6350262;28;20051;-96
2023/11/09 15:22:35;;;;;;;11.65;5.78;;;;;;;;;;6366339;27;20043;-96
2023/11/09 15:25:43;;;;;;;9.02;5.47;;;;;;;;;;6374228;27;20344;-96
2023/11/09 15:28:47;;;;;;;10.60;5.60;;;;;;;;;;6369106;27;20107;-96
2023/11/09 15:32:01;;;;;;;10.38;5.40;;;;;;;;;;6369623;27;20254;-95
2023/11/09 15:35:11;;;;;;;8.23;4.80;;;;;;;;;;6376384;27;20043;-96
2023/11/09 15:38:14;;;;;;;10.00;4.87;;;;;;;;;;6368061;27;20043;-96
2023/11/09 15:41:18;;;;;;;12.70;5.05;;;;;;;;;;6348350;27;20278;-96
2023/11/09 15:44:20;;;;;;;13.63;5.78;;;;;;;;;;6356829;27;20320;-96
2023/11/09 15:47:24;;;;;;;9.20;5.18;;;;;;;;;;6346192;27;20244;-96
2023/11/09 15:50:26;;;;;;;9.48;5.32;;;;;;;;;;6371254;27;20110;-96
2023/11/09 15:53:28;;;;;;;8.20;5.15;;;;;;;;;;6323168;27;20053;-96
2023/11/09 15:56:30;;;;;;;10.05;5.05;;;;;;;;;;6316519;28;20052;-96
2023/11/09 15:59:36;;;;;;;9.35;5.88;;;;;;;;;;6321897;28;20064;-96
2023/11/09 16:02:41;;;;;;;10.35;5.45;;;;;;;;;;6309572;28;20068;-92
2023/11/09 16:05:43;;;;;;;8.82;5.82;;;;;;;;;;6306577;28;20058;-96
2023/11/09 16:08:45;;;;;;;9.82;5.95;;;;;;;;;;6314554;28;20040;-94
2023/11/09 16:11:47;;;;;;;11.38;6.43;;;;;;;;;;6315251;28;20056;-96
2023/11/09 16:14:50;;;;;;;9.77;5.57;;;;;;;;;;6315282;28;20044;-96
2023/11/09 16:17:53;;;;;;;10.95;5.93;;;;;;;;;;6314600;28;20056;-96
2023/11/09 16:20:57;;;;;;;9.80;5.80;;;;;;;;;;6315917;28;20040;-96
2023/11/09 16:24:00;;;;;;;10.50;5.32;;;;;;;;;;6320992;28;20052;-96
2023/11/09 16:27:06;;;;;;;10.52;6.03;;;;;;;;;;6318332;28;20052;-96
2023/11/09 16:30:12;;;;;;;10.98;5.85;;;;;;;;;;6312043;28;20336;-96
2023/11/09 16:33:20;;;;;;;9.75;6.07;;;;;;;;;;6305637;28;20055;-96
2023/11/09 16:36:22;;;;;;;12.07;7.10;;;;;;;;;;6311540;28;20040;-96
2023/11/09 16:39:27;;;;;;;14.43;7.22;;;;;;;;;;6306049;28;20059;-96
2023/11/09 16:42:29;;;;;;;10.63;6.13;;;;;;;;;;6318152;28;20087;-96
2023/11/09 16:45:32;;;;;;;11.15;6.80;;;;;;;;;;6314198;28;20056;-94
2023/11/09 16:48:38;;;;;;;11.80;7.10;;;;;;;;;;6312745;28;20063;-96
2023/11/09 16:51:40;;;;;;;10.38;6.88;;;;;;;;;;6300770;28;20067;-94
2023/11/09 16:54:42;;;;;;;11.85;7.13;;;;;;;;;;6366748;27;20054;-96
2023/11/09 16:57:44;;;;;;;11.65;7.10;;;;;;;;;;6363657;27;20114;-96
2023/11/09 17:00:47;;;;;;;14.88;7.88;;;;;;;;;;6365673;27;20040;-96
2023/11/09 17:03:50;;;;;;;12.20;7.35;;;;;;;;;;6349072;27;20051;-96
2023/11/09 17:06:52;;;;;;;13.20;7.75;;;;;;;;;;6345346;27;20114;-96
2023/11/09 17:09:56;;;;;;;14.00;9.13;;;;;;;;;;6369577;27;20061;-96
2023/11/09 17:13:00;;;;;;;13.32;8.20;;;;;;;;;;6365713;27;20258;-93
2023/11/09 17:16:01;;;;;;;14.02;9.32;;;;;;;;;;6368425;27;20066;-96
2023/11/09 17:19:07;;;;;;;15.20;8.60;;;;;;;;;;6364561;27;20047;-94
2023/11/09 17:22:09;;;;;;;17.73;9.95;;;;;;;;;;6346053;27;20059;-95
2023/11/09 17:25:11;;;;;;;17.55;9.45;;;;;;;;;;6367115;27;20374;-96
2023/11/09 17:28:13;;;;;;;15.95;9.23;;;;;;;;;;6353962;27;20243;-96
2023/11/09 17:31:15;;;;;;;19.85;9.52;;;;;;;;;;6360814;27;20052;-96
2023/11/09 17:34:19;;;;;;;16.98;9.00;;;;;;;;;;6365237;27;20047;-96
2023/11/09 17:37:21;;;;;;;17.65;9.90;;;;;;;;;;6366430;27;20046;-96
2023/11/09 17:40:23;;;;;;;16.75;9.80;;;;;;;;;;6364834;27;20391;-93
2023/11/09 17:43:26;;;;;;;18.70;9.88;;;;;;;;;;6344477;27;20047;-95
2023/11/09 17:46:28;;;;;;;16.83;9.95;;;;;;;;;;6362865;28;20055;-96
2023/11/09 17:49:32;;;;;;;19.42;9.00;;;;;;;;;;6366662;27;20084;-96
2023/11/09 17:52:36;;;;;;;19.15;9.20;;;;;;;;;;6362764;28;20051;-96
2023/11/09 17:55:39;;;;;;;16.25;9.25;;;;;;;;;;6367189;28;20055;-95
2023/11/09 17:58:42;;;;;;;12.98;8.27;;;;;;;;;;6367754;28;20051;-94
2023/11/09 18:01:44;;;;;;;13.93;8.85;;;;;;;;;;6348097;28;20114;-96
2023/11/09 18:04:48;;;;;;;19.98;9.82;;;;;;;;;;6363798;28;20048;-96
2023/11/09 18:07:49;;;;;;;16.40;10.07;;;;;;;;;;6352792;28;20051;-95
2023/11/09 18:10:51;;;;;;;17.33;8.77;;;;;;;;;;6364866;28;20055;-95
2023/11/09 18:13:53;;;;;;;17.13;9.48;;;;;;;;;;6365473;27;20059;-96
2023/11/09 18:16:55;;;;;;;16.00;9.50;;;;;;;;;;6364043;28;20059;-96
2023/11/09 18:20:00;;;;;;;14.43;9.45;;;;;;;;;;6365342;28;20135;-93
2023/11/09 18:23:03;;;;;;;15.50;9.70;;;;;;;;;;6347036;28;20043;-96
2023/11/09 18:26:07;;;;;;;14.93;9.52;;;;;;;;;;6367908;28;20047;-96
2023/11/09 18:29:09;;;;;;;16.60;10.27;;;;;;;;;;6366128;27;20074;-96
2023/11/09 18:32:13;;;;;;;17.35;10.25;;;;;;;;;;6368645;28;20047;-96
2023/11/09 18:35:16;;;;;;;16.55;10.13;;;;;;;;;;6363235;28;20068;-95
2023/11/09 18:38:19;;;;;;;18.23;9.43;;;;;;;;;;6371380;27;20114;-96
2023/11/09 18:41:26;;;;;;;17.38;10.75;;;;;;;;;;6372414;27;20051;-96
2023/11/09 18:44:28;;;;;;;15.93;10.18;;;;;;;;;;6371988;27;20057;-96
2023/11/09 18:47:31;;;;;;;19.02;10.02;;;;;;;;;;6371250;27;20063;-96
2023/11/09 18:50:40;;;;;;;20.20;10.15;;;;;;;;;;6371877;27;20054;-96
2023/11/09 18:53:44;;;;;;;20.13;11.48;;;;;;;;;;6360031;27;20039;-96
2023/11/09 18:56:48;;;;;;;18.75;9.85;;;;;;;;;;6377239;27;20087;-93
2023/11/09 18:59:56;;;;;;;25.38;11.43;;;;;;;;;;6367892;27;20055;-96
2023/11/09 19:03:04;;;;;;;16.83;10.27;;;;;;;;;;6367758;27;20055;-96
2023/11/09 19:06:08;;;;;;;15.63;10.15;;;;;;;;;;6348724;27;20115;-96
2023/11/09 19:09:11;;;;;;;18.35;10.45;;;;;;;;;;6359661;27;20050;-96
2023/11/09 19:12:18;;;;;;;15.27;10.32;;;;;;;;;;6372856;27;20099;-96
2023/11/09 19:15:24;;;;;;;16.58;8.73;;;;;;;;;;6361252;27;20054;-95
2023/11/09 19:18:32;;;;;;;14.38;8.57;;;;;;;;;;6381483;22;20048;-96
2023/11/09 19:27:57;;;;;;;13.10;7.63;;;;;;;;;;6455012;22;20042;-95
2023/11/09 19:31:01;;;;;;;;;;;;;;;;;;6324683;28;20916;-96
2023/11/09 19:34:08;;;;;;;11.40;7.13;;;;;;;;;;6315454;28;19905;-96
2023/11/09 19:43:26;;;;;;;11.55;8.25;;;;;;;;;;6327733;28;20056;-95
2023/11/09 19:46:28;;;;;;;15.23;8.90;;;;;;;;;;6304480;28;20085;-96
2023/11/09 19:49:32;;;;;;;13.98;7.97;;;;;;;;;;6319982;28;20085;-96
2023/11/09 19:52:35;;;;;;;11.73;8.02;;;;;;;;;;6311654;28;20050;-96
2023/11/09 19:55:38;;;;;;;14.23;8.53;;;;;;;;;;6312221;28;20410;-96
2023/11/09 19:58:42;;;;;;;12.38;7.28;;;;;;;;;;6332452;27;20299;-96
2023/11/09 20:01:47;;;;;;;11.10;7.65;;;;;;;;;;6342428;28;20056;-96
2023/11/09 20:04:51;;;;;;;11.38;7.30;;;;;;;;;;6340289;28;20147;-96
2023/11/09 20:07:54;;;;;;;;;;;;;;;;;;6350542;27;20055;-96
2023/11/09 20:11:03;;;;;;;12.48;7.95;;;;;;;;;;6349750;28;19908;-96
2023/11/09 20:14:12;;;;;;;11.25;8.05;;;;;;;;;;6353452;28;20052;-98
2023/11/09 20:17:18;;;;;;;13.82;8.60;;;;;;;;;;6348637;27;20036;-96
2023/11/09 20:23:43;;;;;;;12.80;7.55;;;;;;;;;;6344401;28;20057;-96
2023/11/09 20:30:19;;;;;;;14.85;9.07;;;;;;;;;;6321978;27;20032;-96
2023/11/09 20:33:37;;;;;;;15.07;9.43;;;;;;;;;;6349841;28;20040;-97
2023/11/09 20:37:00;;;;;;;13.43;8.60;;;;;;;;;;6316204;28;20060;-94
2023/11/09 20:40:04;;;;;;;15.23;9.18;;;;;;;;;;6343438;27;20046;-96
2023/11/09 20:43:08;;;;;;;13.07;8.38;;;;;;;;;;6339105;28;20067;-96
2023/11/09 20:46:14;;;;;;;13.13;8.18;;;;;;;;;;6344184;28;20122;-95
2023/11/09 20:49:20;;;;;;;11.70;8.07;;;;;;;;;;6345832;28;20104;-94
2023/11/09 20:52:23;;;;;;;11.23;7.43;;;;;;;;;;6330812;28;20048;-96
2023/11/09 20:58:47;;;;;;;9.57;6.50;;;;;;;;;;6314923;27;20251;-96
2023/11/09 21:05:13;;;;;;;10.20;6.93;;;;;;;;;;6345625;28;20035;-95
2023/11/09 21:08:16;;;;;;;11.13;7.03;;;;;;;;;;6339456;28;20127;-96
2023/11/09 21:11:36;;;;;;;11.50;6.78;;;;;;;;;;6339050;28;20240;-96
2023/11/09 21:14:43;;;;;;;10.20;6.68;;;;;;;;;;6348043;27;20055;-96
2023/11/09 21:17:52;;;;;;;9.75;6.93;;;;;;;;;;6335978;28;20052;-96
2023/11/09 21:20:55;;;;;;;10.00;6.68;;;;;;;;;;6324087;28;20055;-96
2023/11/09 21:24:08;;;;;;;9.82;6.40;;;;;;;;;;6331169;28;20056;-96
2023/11/09 21:27:13;;;;;;;10.10;6.95;;;;;;;;;;6347405;28;20067;-96
2023/11/09 21:30:19;;;;;;;10.35;6.50;;;;;;;;;;6339592;28;20070;-97
2023/11/09 21:37:21;;;;;;;9.65;6.45;;;;;;;;;;6320995;28;20129;-95
2023/11/09 21:40:40;;;;;;;8.45;6.15;;;;;;;;;;6342997;28;20046;-96
2023/11/09 21:43:48;;;;;;;9.52;6.32;;;;;;;;;;6333790;28;20154;-96
2023/11/09 21:46:59;;;;;;;8.52;6.10;;;;;;;;;;6306785;27;20047;-96
2023/11/09 21:50:33;;;;;;;9.10;6.03;;;;;;;;;;6293625;28;20048;-95
2023/11/09 21:53:41;;;;;;;8.27;6.22;;;;;;;;;;6333289;28;20124;-96
2023/11/09 21:56:50;;;;;;;11.90;6.30;;;;;;;;;;6323329;28;20062;-93
2023/11/09 21:59:54;;;;;;;8.40;5.88;;;;;;;;;;6348582;28;20052;-96
2023/11/09 22:02:59;;;;;;;9.10;5.77;;;;;;;;;;6331435;28;20052;-96
2023/11/09 22:06:11;;;;;;;8.93;6.25;;;;;;;;;;6358138;28;20063;-96
2023/11/09 22:12:17;;;;;;;7.68;5.57;;;;;;;;;;6290407;28;20044;-96
2023/11/09 22:15:23;;;;;;;7.38;5.35;;;;;;;;;;6294619;28;20056;-96
2023/11/09 22:31:49;;;;;;;9.55;6.20;;;;;;;;;;6307294;28;20060;-96
2023/11/09 22:34:55;;;;;;;8.77;5.15;;;;;;;;;;6302826;28;20079;-96
2023/11/09 22:38:01;;;;;;;8.63;5.30;;;;;;;;;;6301062;28;20052;-96
2023/11/09 22:41:14;;;;;;;7.68;5.65;;;;;;;;;;6316924;28;20040;-96
2023/11/09 22:44:16;;;;;;;9.57;5.72;;;;;;;;;;6308786;28;20048;-96
2023/11/09 22:47:30;;;;;;;8.20;5.35;;;;;;;;;;6299564;28;20052;-95
2023/11/09 22:50:32;;;;;;;7.95;5.55;;;;;;;;;;6302411;28;20134;-96
2023/11/09 22:53:37;;;;;;;7.40;5.80;;;;;;;;;;6313557;28;20120;-96
2023/11/09 22:56:41;;;;;;;9.80;6.18;;;;;;;;;;6272202;28;20049;-96
2023/11/09 22:59:43;;;;;;;8.25;5.90;;;;;;;;;;6313922;28;20069;-96
2023/11/09 23:02:49;;;;;;;74.43;37.20;;;;;;;;;;6332958;28;20321;-94
2023/11/09 23:05:54;;;;;;;78.93;31.98;;;;;;;;;;6335026;28;20081;-96
2023/11/09 23:08:58;;;;;;;28.35;15.07;;;;;;;;;;6314925;28;20045;-93
2023/11/09 23:15:22;;;;;;;12.88;9.40;;;;;;;;;;6319686;28;20040;-96
2023/11/09 23:21:43;;;;;;;24.45;16.83;;;;;;;;;;6213091;28;20049;-96
2023/11/09 23:28:08;;;;;;;10.10;6.40;;;;;;;;;;6268783;28;20045;-96
2023/11/09 23:37:43;;;;;;;10.98;7.53;;;;;;;;;;6292861;28;20052;-96
2023/11/09 23:40:48;;;;;;;10.10;6.32;;;;;;;;;;6310837;28;20147;-96
2023/11/09 23:43:50;;;;;;;9.38;6.68;;;;;;;;;;6301353;28;20052;-96
2023/11/09 23:46:52;;;;;;;10.25;6.63;;;;;;;;;;6329709;28;20074;-96